sensor_id;sensor_type;location;lat;lon;timestamp;P1;durP1;ratioP1;P2;durP2;ratioP2
19554;SDS011;9924;50.828;6.440;2023-02-28T00:00:05;3.63;;;2.47;;
19554;SDS011;9924;50.828;6.440;2023-02-28T00:02:54;5.03;;;1.93;;
19554;SDS011;9924;50.828;6.440;2023-02-28T00:05:38;3.43;;;2.20;;
19554;SDS011;9924;50.828;6.440;2023-02-28T00:08:23;4.13;;;2.10;;
19554;SDS011;9924;50.828;6.440;2023-02-28T00:11:11;3.03;;;2.13;;
19554;SDS011;9924;50.828;6.440;2023-02-28T00:13:57;4.87;;;2.47;;
19554;SDS011;9924;50.828;6.440;2023-02-28T00:16:42;4.43;;;2.53;;
19554;SDS011;9924;50.828;6.440;2023-02-28T00:19:26;3.33;;;2.10;;
19554;SDS011;9924;50.828;6.440;2023-02-28T00:22:11;2.83;;;2.00;;
19554;SDS011;9924;50.828;6.440;2023-02-28T00:24:55;3.93;;;2.13;;
19554;SDS011;9924;50.828;6.440;2023-02-28T00:27:40;7.07;;;2.00;;
19554;SDS011;9924;50.828;6.440;2023-02-28T00:30:24;3.23;;;1.90;;
19554;SDS011;9924;50.828;6.440;2023-02-28T00:33:09;3.93;;;2.00;;
19554;SDS011;9924;50.828;6.440;2023-02-28T00:36:00;3.97;;;2.20;;
19554;SDS011;9924;50.828;6.440;2023-02-28T00:38:49;5.93;;;2.20;;
19554;SDS011;9924;50.828;6.440;2023-02-28T00:41:33;4.13;;;2.00;;
19554;SDS011;9924;50.828;6.440;2023-02-28T00:44:18;4.43;;;2.30;;
19554;SDS011;9924;50.828;6.440;2023-02-28T00:47:05;5.93;;;2.13;;
19554;SDS011;9924;50.828;6.440;2023-02-28T00:49:49;7.43;;;2.60;;
19554;SDS011;9924;50.828;6.440;2023-02-28T00:52:34;4.07;;;1.83;;
19554;SDS011;9924;50.828;6.440;2023-02-28T00:55:18;3.83;;;2.17;;
19554;SDS011;9924;50.828;6.440;2023-02-28T00:58:02;5.13;;;2.10;;
19554;SDS011;9924;50.828;6.440;2023-02-28T01:00:47;4.07;;;2.00;;
19554;SDS011;9924;50.828;6.440;2023-02-28T01:03:32;6.07;;;2.53;;
19554;SDS011;9924;50.828;6.440;2023-02-28T01:06:16;5.23;;;2.00;;
19554;SDS011;9924;50.828;6.440;2023-02-28T01:09:01;2.77;;;1.83;;
19554;SDS011;9924;50.828;6.440;2023-02-28T01:11:46;4.43;;;2.47;;
19554;SDS011;9924;50.828;6.440;2023-02-28T01:14:32;3.43;;;2.30;;
19554;SDS011;9924;50.828;6.440;2023-02-28T01:17:16;4.37;;;2.13;;
19554;SDS011;9924;50.828;6.440;2023-02-28T01:20:01;8.43;;;2.77;;
19554;SDS011;9924;50.828;6.440;2023-02-28T01:22:46;7.67;;;2.70;;
19554;SDS011;9924;50.828;6.440;2023-02-28T01:25:33;6.57;;;2.30;;
19554;SDS011;9924;50.828;6.440;2023-02-28T01:28:18;7.10;;;2.80;;
19554;SDS011;9924;50.828;6.440;2023-02-28T01:31:03;8.97;;;2.50;;
19554;SDS011;9924;50.828;6.440;2023-02-28T01:33:48;6.17;;;2.50;;
19554;SDS011;9924;50.828;6.440;2023-02-28T01:36:32;8.60;;;2.27;;
19554;SDS011;9924;50.828;6.440;2023-02-28T01:39:16;6.63;;;2.57;;
19554;SDS011;9924;50.828;6.440;2023-02-28T01:42:01;7.10;;;2.53;;
19554;SDS011;9924;50.828;6.440;2023-02-28T01:48:05;8.37;;;2.40;;
19554;SDS011;9924;50.828;6.440;2023-02-28T01:50:52;4.07;;;2.23;;
19554;SDS011;9924;50.828;6.440;2023-02-28T01:53:45;5.90;;;2.17;;
19554;SDS011;9924;50.828;6.440;2023-02-28T01:56:33;5.60;;;2.43;;
19554;SDS011;9924;50.828;6.440;2023-02-28T01:59:22;6.80;;;2.70;;
19554;SDS011;9924;50.828;6.440;2023-02-28T02:02:29;4.47;;;2.10;;
19554;SDS011;9924;50.828;6.440;2023-02-28T02:05:16;5.37;;;2.70;;
19554;SDS011;9924;50.828;6.440;2023-02-28T02:08:06;4.73;;;2.50;;
19554;SDS011;9924;50.828;6.440;2023-02-28T02:11:00;5.63;;;2.63;;
19554;SDS011;9924;50.828;6.440;2023-02-28T02:13:52;5.53;;;2.57;;
19554;SDS011;9924;50.828;6.440;2023-02-28T02:20:16;5.13;;;2.50;;
19554;SDS011;9924;50.828;6.440;2023-02-28T02:36:04;6.83;;;2.50;;
19554;SDS011;9924;50.828;6.440;2023-02-28T02:41:49;4.63;;;2.60;;
19554;SDS011;9924;50.828;6.440;2023-02-28T02:44:40;5.73;;;2.40;;
19554;SDS011;9924;50.828;6.440;2023-02-28T02:47:29;7.13;;;2.47;;
19554;SDS011;9924;50.828;6.440;2023-02-28T02:50:22;5.07;;;2.47;;
19554;SDS011;9924;50.828;6.440;2023-02-28T02:53:11;6.73;;;2.43;;
19554;SDS011;9924;50.828;6.440;2023-02-28T02:55:59;3.20;;;2.27;;
19554;SDS011;9924;50.828;6.440;2023-02-28T02:58:46;3.10;;;2.10;;
19554;SDS011;9924;50.828;6.440;2023-02-28T03:01:34;4.23;;;2.47;;
19554;SDS011;9924;50.828;6.440;2023-02-28T03:04:22;5.13;;;2.60;;
19554;SDS011;9924;50.828;6.440;2023-02-28T03:07:08;3.97;;;2.33;;
19554;SDS011;9924;50.828;6.440;2023-02-28T03:09:53;4.80;;;2.87;;
19554;SDS011;9924;50.828;6.440;2023-02-28T03:12:55;3.50;;;2.43;;
19554;SDS011;9924;50.828;6.440;2023-02-28T03:19:28;5.90;;;2.30;;
19554;SDS011;9924;50.828;6.440;2023-02-28T03:25:31;3.33;;;2.30;;
19554;SDS011;9924;50.828;6.440;2023-02-28T03:31:30;5.30;;;2.63;;
19554;SDS011;9924;50.828;6.440;2023-02-28T03:34:24;3.90;;;2.63;;
19554;SDS011;9924;50.828;6.440;2023-02-28T03:37:16;7.93;;;3.03;;
19554;SDS011;9924;50.828;6.440;2023-02-28T03:40:05;4.43;;;2.97;;
19554;SDS011;9924;50.828;6.440;2023-02-28T03:42:58;6.90;;;3.07;;
19554;SDS011;9924;50.828;6.440;2023-02-28T03:45:46;4.07;;;2.73;;
19554;SDS011;9924;50.828;6.440;2023-02-28T03:48:38;4.97;;;2.73;;
19554;SDS011;9924;50.828;6.440;2023-02-28T03:51:27;5.13;;;3.20;;
19554;SDS011;9924;50.828;6.440;2023-02-28T03:54:14;5.47;;;3.20;;
19554;SDS011;9924;50.828;6.440;2023-02-28T04:00:00;5.80;;;2.93;;
19554;SDS011;9924;50.828;6.440;2023-02-28T04:02:51;4.57;;;2.67;;
19554;SDS011;9924;50.828;6.440;2023-02-28T04:05:45;5.67;;;2.50;;
19554;SDS011;9924;50.828;6.440;2023-02-28T04:08:41;7.13;;;3.10;;
19554;SDS011;9924;50.828;6.440;2023-02-28T04:11:41;6.93;;;3.43;;
19554;SDS011;9924;50.828;6.440;2023-02-28T04:14:28;5.47;;;3.03;;
19554;SDS011;9924;50.828;6.440;2023-02-28T04:17:13;4.77;;;2.90;;
19554;SDS011;9924;50.828;6.440;2023-02-28T04:19:57;4.77;;;2.90;;
19554;SDS011;9924;50.828;6.440;2023-02-28T04:22:42;4.33;;;2.67;;
19554;SDS011;9924;50.828;6.440;2023-02-28T04:25:26;6.37;;;2.57;;
19554;SDS011;9924;50.828;6.440;2023-02-28T04:28:11;4.77;;;2.60;;
19554;SDS011;9924;50.828;6.440;2023-02-28T04:30:59;5.30;;;2.70;;
19554;SDS011;9924;50.828;6.440;2023-02-28T04:33:45;9.57;;;3.20;;
19554;SDS011;9924;50.828;6.440;2023-02-28T04:36:29;6.97;;;2.50;;
19554;SDS011;9924;50.828;6.440;2023-02-28T04:39:15;6.70;;;2.43;;
19554;SDS011;9924;50.828;6.440;2023-02-28T04:42:02;5.20;;;2.80;;
19554;SDS011;9924;50.828;6.440;2023-02-28T04:44:47;5.97;;;2.50;;
19554;SDS011;9924;50.828;6.440;2023-02-28T04:47:31;6.97;;;2.97;;
19554;SDS011;9924;50.828;6.440;2023-02-28T04:50:16;4.80;;;2.73;;
19554;SDS011;9924;50.828;6.440;2023-02-28T04:53:00;3.70;;;2.40;;
19554;SDS011;9924;50.828;6.440;2023-02-28T04:55:45;8.00;;;3.00;;
19554;SDS011;9924;50.828;6.440;2023-02-28T04:58:29;8.87;;;2.97;;
19554;SDS011;9924;50.828;6.440;2023-02-28T05:01:21;6.87;;;2.70;;
19554;SDS011;9924;50.828;6.440;2023-02-28T05:04:06;8.73;;;2.60;;
19554;SDS011;9924;50.828;6.440;2023-02-28T05:06:50;6.13;;;2.63;;
19554;SDS011;9924;50.828;6.440;2023-02-28T05:09:34;4.33;;;2.67;;
19554;SDS011;9924;50.828;6.440;2023-02-28T05:12:19;12.00;;;4.07;;
19554;SDS011;9924;50.828;6.440;2023-02-28T05:15:03;5.30;;;2.80;;
19554;SDS011;9924;50.828;6.440;2023-02-28T05:17:48;8.03;;;2.83;;
19554;SDS011;9924;50.828;6.440;2023-02-28T05:20:32;11.13;;;3.17;;
19554;SDS011;9924;50.828;6.440;2023-02-28T05:23:17;10.87;;;3.30;;
19554;SDS011;9924;50.828;6.440;2023-02-28T05:26:07;12.73;;;3.50;;
19554;SDS011;9924;50.828;6.440;2023-02-28T05:28:52;10.50;;;3.47;;
19554;SDS011;9924;50.828;6.440;2023-02-28T05:31:36;4.63;;;2.97;;
19554;SDS011;9924;50.828;6.440;2023-02-28T05:34:21;8.67;;;3.13;;
19554;SDS011;9924;50.828;6.440;2023-02-28T05:37:05;7.53;;;3.60;;
19554;SDS011;9924;50.828;6.440;2023-02-28T05:39:54;5.27;;;2.83;;
19554;SDS011;9924;50.828;6.440;2023-02-28T05:42:39;7.80;;;3.43;;
19554;SDS011;9924;50.828;6.440;2023-02-28T05:45:23;7.47;;;3.13;;
19554;SDS011;9924;50.828;6.440;2023-02-28T05:48:08;8.43;;;3.43;;
19554;SDS011;9924;50.828;6.440;2023-02-28T05:50:52;10.47;;;3.93;;
19554;SDS011;9924;50.828;6.440;2023-02-28T05:53:36;11.00;;;3.93;;
19554;SDS011;9924;50.828;6.440;2023-02-28T05:56:21;6.23;;;3.50;;
19554;SDS011;9924;50.828;6.440;2023-02-28T05:59:05;12.90;;;4.17;;
19554;SDS011;9924;50.828;6.440;2023-02-28T06:01:50;7.43;;;4.07;;
19554;SDS011;9924;50.828;6.440;2023-02-28T06:04:36;6.53;;;3.53;;
19554;SDS011;9924;50.828;6.440;2023-02-28T06:07:21;8.57;;;3.80;;
19554;SDS011;9924;50.828;6.440;2023-02-28T06:10:06;7.00;;;3.23;;
19554;SDS011;9924;50.828;6.440;2023-02-28T06:12:50;7.03;;;3.37;;
19554;SDS011;9924;50.828;6.440;2023-02-28T06:15:35;7.80;;;3.80;;
19554;SDS011;9924;50.828;6.440;2023-02-28T06:18:19;8.03;;;3.80;;
19554;SDS011;9924;50.828;6.440;2023-02-28T06:21:03;4.97;;;3.30;;
19554;SDS011;9924;50.828;6.440;2023-02-28T06:23:48;9.03;;;3.40;;
19554;SDS011;9924;50.828;6.440;2023-02-28T06:26:33;6.63;;;3.50;;
19554;SDS011;9924;50.828;6.440;2023-02-28T06:29:17;8.13;;;3.87;;
19554;SDS011;9924;50.828;6.440;2023-02-28T06:32:02;7.47;;;3.60;;
19554;SDS011;9924;50.828;6.440;2023-02-28T06:34:46;6.30;;;3.53;;
19554;SDS011;9924;50.828;6.440;2023-02-28T06:37:31;8.47;;;4.13;;
19554;SDS011;9924;50.828;6.440;2023-02-28T06:40:16;7.87;;;3.90;;
19554;SDS011;9924;50.828;6.440;2023-02-28T06:43:01;8.60;;;4.00;;
19554;SDS011;9924;50.828;6.440;2023-02-28T06:45:45;8.97;;;4.23;;
19554;SDS011;9924;50.828;6.440;2023-02-28T06:48:29;10.03;;;4.50;;
19554;SDS011;9924;50.828;6.440;2023-02-28T06:51:15;8.63;;;4.03;;
19554;SDS011;9924;50.828;6.440;2023-02-28T06:54:03;7.87;;;4.40;;
19554;SDS011;9924;50.828;6.440;2023-02-28T06:56:48;6.73;;;4.03;;
19554;SDS011;9924;50.828;6.440;2023-02-28T06:59:32;8.00;;;3.97;;
19554;SDS011;9924;50.828;6.440;2023-02-28T07:02:18;9.27;;;4.83;;
19554;SDS011;9924;50.828;6.440;2023-02-28T07:05:03;13.83;;;4.90;;
19554;SDS011;9924;50.828;6.440;2023-02-28T07:07:51;8.17;;;3.80;;
19554;SDS011;9924;50.828;6.440;2023-02-28T07:10:39;7.03;;;4.43;;
19554;SDS011;9924;50.828;6.440;2023-02-28T07:13:24;11.60;;;4.10;;
19554;SDS011;9924;50.828;6.440;2023-02-28T07:16:10;5.77;;;3.50;;
19554;SDS011;9924;50.828;6.440;2023-02-28T07:18:56;7.63;;;3.23;;
19554;SDS011;9924;50.828;6.440;2023-02-28T07:21:41;7.03;;;3.20;;
19554;SDS011;9924;50.828;6.440;2023-02-28T07:24:25;5.00;;;2.77;;
19554;SDS011;9924;50.828;6.440;2023-02-28T07:27:11;3.27;;;2.73;;
19554;SDS011;9924;50.828;6.440;2023-02-28T07:29:56;5.00;;;3.13;;
19554;SDS011;9924;50.828;6.440;2023-02-28T07:32:41;7.57;;;2.63;;
19554;SDS011;9924;50.828;6.440;2023-02-28T07:35:25;8.23;;;3.10;;
19554;SDS011;9924;50.828;6.440;2023-02-28T07:38:09;5.83;;;2.70;;
19554;SDS011;9924;50.828;6.440;2023-02-28T07:40:55;8.80;;;3.37;;
19554;SDS011;9924;50.828;6.440;2023-02-28T07:43:39;8.63;;;3.67;;
19554;SDS011;9924;50.828;6.440;2023-02-28T07:46:24;9.93;;;3.93;;
19554;SDS011;9924;50.828;6.440;2023-02-28T07:49:08;8.13;;;3.70;;
19554;SDS011;9924;50.828;6.440;2023-02-28T07:51:53;7.33;;;3.50;;
19554;SDS011;9924;50.828;6.440;2023-02-28T07:54:37;9.00;;;4.17;;
19554;SDS011;9924;50.828;6.440;2023-02-28T07:57:22;10.07;;;3.57;;
19554;SDS011;9924;50.828;6.440;2023-02-28T08:00:07;5.80;;;3.77;;
19554;SDS011;9924;50.828;6.440;2023-02-28T08:02:53;11.63;;;8.73;;
19554;SDS011;9924;50.828;6.440;2023-02-28T08:05:39;8.37;;;5.30;;
19554;SDS011;9924;50.828;6.440;2023-02-28T08:08:23;5.50;;;3.40;;
19554;SDS011;9924;50.828;6.440;2023-02-28T08:11:14;5.17;;;2.33;;
19554;SDS011;9924;50.828;6.440;2023-02-28T08:14:00;4.37;;;3.27;;
19554;SDS011;9924;50.828;6.440;2023-02-28T08:16:44;5.40;;;2.80;;
19554;SDS011;9924;50.828;6.440;2023-02-28T08:19:28;4.17;;;2.67;;
19554;SDS011;9924;50.828;6.440;2023-02-28T08:22:13;4.93;;;2.50;;
19554;SDS011;9924;50.828;6.440;2023-02-28T08:24:59;3.43;;;2.27;;
19554;SDS011;9924;50.828;6.440;2023-02-28T08:27:43;5.17;;;2.40;;
19554;SDS011;9924;50.828;6.440;2023-02-28T08:30:28;3.27;;;2.03;;
19554;SDS011;9924;50.828;6.440;2023-02-28T08:33:12;2.83;;;1.97;;
19554;SDS011;9924;50.828;6.440;2023-02-28T08:35:57;4.53;;;2.63;;
19554;SDS011;9924;50.828;6.440;2023-02-28T08:38:41;4.87;;;2.30;;
19554;SDS011;9924;50.828;6.440;2023-02-28T08:41:26;4.70;;;2.20;;
19554;SDS011;9924;50.828;6.440;2023-02-28T08:44:11;5.93;;;2.10;;
19554;SDS011;9924;50.828;6.440;2023-02-28T08:46:55;2.53;;;2.10;;
19554;SDS011;9924;50.828;6.440;2023-02-28T08:49:40;8.93;;;3.43;;
19554;SDS011;9924;50.828;6.440;2023-02-28T08:52:24;26.10;;;9.57;;
19554;SDS011;9924;50.828;6.440;2023-02-28T08:55:09;14.77;;;6.30;;
19554;SDS011;9924;50.828;6.440;2023-02-28T08:57:53;19.87;;;7.73;;
19554;SDS011;9924;50.828;6.440;2023-02-28T09:00:38;8.67;;;3.67;;
19554;SDS011;9924;50.828;6.440;2023-02-28T09:03:23;2.80;;;2.00;;
19554;SDS011;9924;50.828;6.440;2023-02-28T09:06:08;5.20;;;2.03;;
19554;SDS011;9924;50.828;6.440;2023-02-28T09:08:55;2.90;;;2.03;;
19554;SDS011;9924;50.828;6.440;2023-02-28T09:11:42;2.43;;;1.90;;
19554;SDS011;9924;50.828;6.440;2023-02-28T09:14:26;3.60;;;1.83;;
19554;SDS011;9924;50.828;6.440;2023-02-28T09:17:11;1.57;;;1.43;;
19554;SDS011;9924;50.828;6.440;2023-02-28T09:19:55;1.93;;;1.27;;
19554;SDS011;9924;50.828;6.440;2023-02-28T09:22:40;1.73;;;1.33;;
19554;SDS011;9924;50.828;6.440;2023-02-28T09:25:25;1.60;;;1.30;;
19554;SDS011;9924;50.828;6.440;2023-02-28T09:28:10;6.40;;;1.73;;
19554;SDS011;9924;50.828;6.440;2023-02-28T09:30:55;2.50;;;1.33;;
19554;SDS011;9924;50.828;6.440;2023-02-28T09:33:41;2.57;;;1.30;;
19554;SDS011;9924;50.828;6.440;2023-02-28T09:36:25;2.50;;;1.60;;
19554;SDS011;9924;50.828;6.440;2023-02-28T09:39:11;3.53;;;1.50;;
19554;SDS011;9924;50.828;6.440;2023-02-28T09:41:59;3.07;;;1.47;;
19554;SDS011;9924;50.828;6.440;2023-02-28T09:44:45;3.00;;;1.20;;
19554;SDS011;9924;50.828;6.440;2023-02-28T09:47:33;3.00;;;1.40;;
19554;SDS011;9924;50.828;6.440;2023-02-28T09:50:41;1.67;;;1.30;;
19554;SDS011;9924;50.828;6.440;2023-02-28T09:53:43;2.67;;;1.70;;
19554;SDS011;9924;50.828;6.440;2023-02-28T10:08:38;2.65;;;1.55;;
19554;SDS011;9924;50.828;6.440;2023-02-28T10:11:36;2.10;;;1.70;;
19554;SDS011;9924;50.828;6.440;2023-02-28T10:14:23;3.30;;;2.08;;
19554;SDS011;9924;50.828;6.440;2023-02-28T10:17:43;1.98;;;1.38;;
19554;SDS011;9924;50.828;6.440;2023-02-28T10:20:22;2.90;;;1.25;;
19554;SDS011;9924;50.828;6.440;2023-02-28T10:26:09;4.63;;;1.35;;
19554;SDS011;9924;50.828;6.440;2023-02-28T10:28:56;3.17;;;1.75;;
19554;SDS011;9924;50.828;6.440;2023-02-28T10:31:41;2.22;;;1.40;;
19554;SDS011;9924;50.828;6.440;2023-02-28T10:34:25;1.77;;;1.38;;
19554;SDS011;9924;50.828;6.440;2023-02-28T10:37:12;2.50;;;1.60;;
19554;SDS011;9924;50.828;6.440;2023-02-28T10:39:57;2.67;;;1.60;;
19554;SDS011;9924;50.828;6.440;2023-02-28T10:42:42;4.68;;;2.25;;
19554;SDS011;9924;50.828;6.440;2023-02-28T10:45:52;2.75;;;1.50;;
19554;SDS011;9924;50.828;6.440;2023-02-28T10:48:45;9.80;;;3.53;;
19554;SDS011;9924;50.828;6.440;2023-02-28T10:51:40;3.05;;;1.55;;
19554;SDS011;9924;50.828;6.440;2023-02-28T10:54:35;2.95;;;1.70;;
19554;SDS011;9924;50.828;6.440;2023-02-28T10:57:22;5.65;;;1.63;;
19554;SDS011;9924;50.828;6.440;2023-02-28T11:00:16;2.17;;;1.70;;
19554;SDS011;9924;50.828;6.440;2023-02-28T11:03:09;3.03;;;1.60;;
19554;SDS011;9924;50.828;6.440;2023-02-28T11:06:20;3.47;;;1.90;;
19554;SDS011;9924;50.828;6.440;2023-02-28T11:09:16;3.55;;;1.60;;
19554;SDS011;9924;50.828;6.440;2023-02-28T11:12:26;2.28;;;1.88;;
19554;SDS011;9924;50.828;6.440;2023-02-28T11:21:03;10.30;;;3.75;;
19554;SDS011;9924;50.828;6.440;2023-02-28T11:23:51;5.55;;;1.75;;
19554;SDS011;9924;50.828;6.440;2023-02-28T11:29:28;14.15;;;5.72;;
19554;SDS011;9924;50.828;6.440;2023-02-28T11:32:19;4.55;;;2.45;;
19554;SDS011;9924;50.828;6.440;2023-02-28T11:37:55;5.05;;;2.78;;
19554;SDS011;9924;50.828;6.440;2023-02-28T11:46:39;7.57;;;2.55;;
19554;SDS011;9924;50.828;6.440;2023-02-28T11:49:35;4.45;;;2.53;;
19554;SDS011;9924;50.828;6.440;2023-02-28T12:05:20;2.92;;;1.80;;
19554;SDS011;9924;50.828;6.440;2023-02-28T12:18:00;4.60;;;1.65;;
19554;SDS011;9924;50.828;6.440;2023-02-28T12:20:34;3.75;;;1.90;;
19554;SDS011;9924;50.828;6.440;2023-02-28T12:26:34;2.72;;;2.00;;
19554;SDS011;9924;50.828;6.440;2023-02-28T12:29:29;2.15;;;1.88;;
19554;SDS011;9924;50.828;6.440;2023-02-28T12:32:26;4.07;;;1.88;;
19554;SDS011;9924;50.828;6.440;2023-02-28T12:35:17;3.88;;;2.03;;
19554;SDS011;9924;50.828;6.440;2023-02-28T12:38:12;3.35;;;2.13;;
19554;SDS011;9924;50.828;6.440;2023-02-28T12:41:03;3.20;;;1.80;;
19554;SDS011;9924;50.828;6.440;2023-02-28T12:44:11;3.17;;;2.10;;
19554;SDS011;9924;50.828;6.440;2023-02-28T12:47:02;1.88;;;1.65;;
19554;SDS011;9924;50.828;6.440;2023-02-28T12:50:13;4.32;;;1.83;;
19554;SDS011;9924;50.828;6.440;2023-02-28T13:11:53;4.13;;;1.90;;
19554;SDS011;9924;50.828;6.440;2023-02-28T13:14:39;4.05;;;2.65;;
19554;SDS011;9924;50.828;6.440;2023-02-28T13:17:24;6.68;;;3.35;;
19554;SDS011;9924;50.828;6.440;2023-02-28T13:23:38;6.72;;;3.45;;
19554;SDS011;9924;50.828;6.440;2023-02-28T13:29:21;12.68;;;5.10;;
19554;SDS011;9924;50.828;6.440;2023-02-28T13:32:28;3.58;;;2.03;;
19554;SDS011;9924;50.828;6.440;2023-02-28T13:35:14;5.20;;;3.08;;
19554;SDS011;9924;50.828;6.440;2023-02-28T13:38:23;4.70;;;2.17;;
19554;SDS011;9924;50.828;6.440;2023-02-28T13:44:16;4.22;;;2.60;;
19554;SDS011;9924;50.828;6.440;2023-02-28T13:47:18;6.50;;;2.35;;
19554;SDS011;9924;50.828;6.440;2023-02-28T13:56:27;2.95;;;2.13;;
19554;SDS011;9924;50.828;6.440;2023-02-28T14:05:21;3.28;;;2.67;;
19554;SDS011;9924;50.828;6.440;2023-02-28T14:08:16;5.00;;;2.30;;
19554;SDS011;9924;50.828;6.440;2023-02-28T14:11:05;2.58;;;2.00;;
19554;SDS011;9924;50.828;6.440;2023-02-28T14:13:53;3.75;;;1.98;;
19554;SDS011;9924;50.828;6.440;2023-02-28T14:16:47;4.45;;;2.35;;
19554;SDS011;9924;50.828;6.440;2023-02-28T14:19:34;2.67;;;2.42;;
19554;SDS011;9924;50.828;6.440;2023-02-28T14:25:36;3.15;;;2.67;;
19554;SDS011;9924;50.828;6.440;2023-02-28T14:31:35;4.63;;;2.75;;
19554;SDS011;9924;50.828;6.440;2023-02-28T14:34:35;4.57;;;2.75;;
19554;SDS011;9924;50.828;6.440;2023-02-28T14:37:30;3.63;;;3.03;;
19554;SDS011;9924;50.828;6.440;2023-02-28T14:43:24;4.38;;;2.30;;
19554;SDS011;9924;50.828;6.440;2023-02-28T14:46:10;8.95;;;4.15;;
19554;SDS011;9924;50.828;6.440;2023-02-28T14:48:57;3.45;;;2.78;;
19554;SDS011;9924;50.828;6.440;2023-02-28T14:51:42;3.83;;;2.92;;
19554;SDS011;9924;50.828;6.440;2023-02-28T14:54:26;3.30;;;2.60;;
19554;SDS011;9924;50.828;6.440;2023-02-28T14:57:21;6.28;;;2.67;;
19554;SDS011;9924;50.828;6.440;2023-02-28T15:00:12;2.90;;;2.35;;
19554;SDS011;9924;50.828;6.440;2023-02-28T15:03:00;4.88;;;3.45;;
19554;SDS011;9924;50.828;6.440;2023-02-28T15:06:12;4.15;;;2.70;;
19554;SDS011;9924;50.828;6.440;2023-02-28T15:09:13;4.35;;;2.88;;
19554;SDS011;9924;50.828;6.440;2023-02-28T15:11:59;3.60;;;2.65;;
19554;SDS011;9924;50.828;6.440;2023-02-28T15:14:44;4.38;;;2.72;;
19554;SDS011;9924;50.828;6.440;2023-02-28T15:17:31;3.40;;;2.67;;
19554;SDS011;9924;50.828;6.440;2023-02-28T15:20:16;5.65;;;2.60;;
19554;SDS011;9924;50.828;6.440;2023-02-28T15:23:01;3.45;;;2.72;;
19554;SDS011;9924;50.828;6.440;2023-02-28T15:25:46;6.25;;;2.65;;
19554;SDS011;9924;50.828;6.440;2023-02-28T15:28:31;5.30;;;2.75;;
19554;SDS011;9924;50.828;6.440;2023-02-28T15:31:20;4.20;;;3.00;;
19554;SDS011;9924;50.828;6.440;2023-02-28T15:34:15;5.38;;;3.30;;
19554;SDS011;9924;50.828;6.440;2023-02-28T15:40:31;6.10;;;2.75;;
19554;SDS011;9924;50.828;6.440;2023-02-28T15:46:13;4.53;;;2.92;;
19554;SDS011;9924;50.828;6.440;2023-02-28T15:48:59;3.80;;;2.88;;
19554;SDS011;9924;50.828;6.440;2023-02-28T15:51:44;4.13;;;2.60;;
19554;SDS011;9924;50.828;6.440;2023-02-28T15:54:30;5.30;;;3.15;;
19554;SDS011;9924;50.828;6.440;2023-02-28T15:57:28;4.10;;;2.78;;
19554;SDS011;9924;50.828;6.440;2023-02-28T16:00:18;6.18;;;2.70;;
19554;SDS011;9924;50.828;6.440;2023-02-28T16:03:32;3.47;;;2.80;;
19554;SDS011;9924;50.828;6.440;2023-02-28T16:09:27;4.13;;;2.72;;
19554;SDS011;9924;50.828;6.440;2023-02-28T16:12:13;5.72;;;3.10;;
19554;SDS011;9924;50.828;6.440;2023-02-28T16:14:59;6.70;;;3.40;;
19554;SDS011;9924;50.828;6.440;2023-02-28T16:17:49;7.60;;;3.55;;
19554;SDS011;9924;50.828;6.440;2023-02-28T16:20:34;5.07;;;3.25;;
19554;SDS011;9924;50.828;6.440;2023-02-28T16:23:18;5.85;;;3.20;;
19554;SDS011;9924;50.828;6.440;2023-02-28T16:26:03;8.30;;;5.70;;
19554;SDS011;9924;50.828;6.440;2023-02-28T16:28:48;5.25;;;3.70;;
19554;SDS011;9924;50.828;6.440;2023-02-28T16:31:35;4.65;;;3.15;;
19554;SDS011;9924;50.828;6.440;2023-02-28T16:34:21;9.63;;;5.18;;
19554;SDS011;9924;50.828;6.440;2023-02-28T16:37:12;7.40;;;4.35;;
19554;SDS011;9924;50.828;6.440;2023-02-28T16:39:59;5.68;;;3.88;;
19554;SDS011;9924;50.828;6.440;2023-02-28T16:42:44;16.08;;;7.40;;
19554;SDS011;9924;50.828;6.440;2023-02-28T16:45:30;14.48;;;7.47;;
19554;SDS011;9924;50.828;6.440;2023-02-28T16:48:15;56.17;;;15.85;;
19554;SDS011;9924;50.828;6.440;2023-02-28T16:50:59;257.63;;;52.30;;
19554;SDS011;9924;50.828;6.440;2023-02-28T16:53:44;131.23;;;30.50;;
19554;SDS011;9924;50.828;6.440;2023-02-28T16:56:30;74.35;;;21.42;;
19554;SDS011;9924;50.828;6.440;2023-02-28T16:59:15;29.00;;;11.00;;
19554;SDS011;9924;50.828;6.440;2023-02-28T17:02:07;26.92;;;10.90;;
19554;SDS011;9924;50.828;6.440;2023-02-28T17:05:03;18.10;;;7.22;;
19554;SDS011;9924;50.828;6.440;2023-02-28T17:07:48;19.40;;;7.82;;
19554;SDS011;9924;50.828;6.440;2023-02-28T17:10:33;15.82;;;7.78;;
19554;SDS011;9924;50.828;6.440;2023-02-28T17:13:18;16.77;;;7.22;;
19554;SDS011;9924;50.828;6.440;2023-02-28T17:16:03;16.17;;;7.65;;
19554;SDS011;9924;50.828;6.440;2023-02-28T17:18:48;17.13;;;8.20;;
19554;SDS011;9924;50.828;6.440;2023-02-28T17:21:33;20.38;;;9.05;;
19554;SDS011;9924;50.828;6.440;2023-02-28T17:24:18;15.47;;;8.40;;
19554;SDS011;9924;50.828;6.440;2023-02-28T17:27:02;14.00;;;7.55;;
19554;SDS011;9924;50.828;6.440;2023-02-28T17:29:47;13.57;;;6.63;;
19554;SDS011;9924;50.828;6.440;2023-02-28T17:32:32;9.77;;;5.00;;
19554;SDS011;9924;50.828;6.440;2023-02-28T17:35:16;9.55;;;5.53;;
19554;SDS011;9924;50.828;6.440;2023-02-28T17:38:01;15.87;;;7.77;;
19554;SDS011;9924;50.828;6.440;2023-02-28T17:40:45;23.38;;;10.40;;
19554;SDS011;9924;50.828;6.440;2023-02-28T17:43:30;12.07;;;6.40;;
19554;SDS011;9924;50.828;6.440;2023-02-28T17:46:18;13.37;;;6.67;;
19554;SDS011;9924;50.828;6.440;2023-02-28T17:49:04;14.40;;;7.47;;
19554;SDS011;9924;50.828;6.440;2023-02-28T17:51:49;9.17;;;5.70;;
19554;SDS011;9924;50.828;6.440;2023-02-28T17:54:34;11.63;;;5.67;;
19554;SDS011;9924;50.828;6.440;2023-02-28T17:57:18;5.77;;;4.37;;
19554;SDS011;9924;50.828;6.440;2023-02-28T18:00:04;7.77;;;4.23;;
19554;SDS011;9924;50.828;6.440;2023-02-28T18:02:50;5.27;;;3.43;;
19554;SDS011;9924;50.828;6.440;2023-02-28T18:05:34;4.30;;;3.20;;
19554;SDS011;9924;50.828;6.440;2023-02-28T18:08:20;6.77;;;3.10;;
19554;SDS011;9924;50.828;6.440;2023-02-28T18:11:05;10.47;;;2.90;;
19554;SDS011;9924;50.828;6.440;2023-02-28T18:13:56;9.60;;;3.07;;
19554;SDS011;9924;50.828;6.440;2023-02-28T18:16:42;5.67;;;3.17;;
19554;SDS011;9924;50.828;6.440;2023-02-28T18:19:27;10.63;;;3.20;;
19554;SDS011;9924;50.828;6.440;2023-02-28T18:22:12;8.87;;;3.57;;
19554;SDS011;9924;50.828;6.440;2023-02-28T18:24:57;4.80;;;2.80;;
19554;SDS011;9924;50.828;6.440;2023-02-28T18:27:42;6.60;;;3.30;;
19554;SDS011;9924;50.828;6.440;2023-02-28T18:30:36;10.70;;;6.50;;
19554;SDS011;9924;50.828;6.440;2023-02-28T18:33:21;16.73;;;6.93;;
19554;SDS011;9924;50.828;6.440;2023-02-28T18:36:05;13.90;;;6.57;;
19554;SDS011;9924;50.828;6.440;2023-02-28T18:38:50;6.60;;;4.53;;
19554;SDS011;9924;50.828;6.440;2023-02-28T18:41:37;21.10;;;9.97;;
19554;SDS011;9924;50.828;6.440;2023-02-28T18:44:22;10.13;;;4.43;;
19554;SDS011;9924;50.828;6.440;2023-02-28T18:47:07;7.87;;;4.07;;
19554;SDS011;9924;50.828;6.440;2023-02-28T18:49:51;5.50;;;3.70;;
19554;SDS011;9924;50.828;6.440;2023-02-28T18:52:38;7.10;;;3.97;;
19554;SDS011;9924;50.828;6.440;2023-02-28T18:55:22;7.27;;;4.23;;
19554;SDS011;9924;50.828;6.440;2023-02-28T18:58:06;9.57;;;4.07;;
19554;SDS011;9924;50.828;6.440;2023-02-28T19:00:51;7.90;;;4.57;;
19554;SDS011;9924;50.828;6.440;2023-02-28T19:03:35;5.90;;;3.67;;
19554;SDS011;9924;50.828;6.440;2023-02-28T19:06:19;12.50;;;4.20;;
19554;SDS011;9924;50.828;6.440;2023-02-28T19:09:05;8.63;;;3.93;;
19554;SDS011;9924;50.828;6.440;2023-02-28T19:11:50;8.30;;;5.50;;
19554;SDS011;9924;50.828;6.440;2023-02-28T19:14:36;24.13;;;11.93;;
19554;SDS011;9924;50.828;6.440;2023-02-28T19:17:21;14.80;;;6.40;;
19554;SDS011;9924;50.828;6.440;2023-02-28T19:20:06;11.90;;;6.27;;
19554;SDS011;9924;50.828;6.440;2023-02-28T19:22:54;13.53;;;6.43;;
19554;SDS011;9924;50.828;6.440;2023-02-28T19:25:41;9.90;;;5.87;;
19554;SDS011;9924;50.828;6.440;2023-02-28T19:28:29;13.77;;;6.50;;
19554;SDS011;9924;50.828;6.440;2023-02-28T19:31:14;11.83;;;5.67;;
19554;SDS011;9924;50.828;6.440;2023-02-28T19:34:00;12.37;;;5.63;;